createdAt,value
2023-04-22T00:01:50.629Z,74.63
2023-04-22T00:04:20.372Z,80.97
2023-04-22T00:06:50.194Z,79.30
2023-04-22T00:09:19.960Z,66.70
2023-04-22T00:11:49.560Z,64.97
2023-04-22T00:14:19.149Z,66.68
2023-04-22T00:16:48.755Z,54.42
2023-04-22T00:19:18.357Z,62.83
2023-04-22T00:21:48.028Z,63.53
2023-04-22T00:24:17.722Z,80.68
2023-04-22T00:26:47.495Z,64.55
2023-04-22T00:29:17.152Z,62.30
2023-04-22T00:31:46.966Z,56.33
2023-04-22T00:34:16.688Z,58.60
2023-04-22T00:36:46.670Z,55.47
2023-04-22T00:39:16.835Z,48.70
2023-04-22T00:41:46.666Z,53.92
2023-04-22T00:44:16.292Z,55.55
2023-04-22T00:46:46.049Z,59.25
2023-04-22T00:49:17.057Z,51.53
2023-04-22T00:51:46.691Z,61.45
2023-04-22T00:54:16.352Z,60.50
2023-04-22T00:56:47.896Z,58.03
2023-04-22T00:59:17.868Z,62.47
2023-04-22T01:01:47.650Z,67.05
2023-04-22T01:04:17.631Z,68.20
2023-04-22T01:06:47.505Z,64.05
2023-04-22T01:09:17.664Z,64.95
2023-04-22T01:11:48.387Z,67.45
2023-04-22T01:14:18.298Z,62.25
2023-04-22T01:16:48.364Z,54.20
2023-04-22T01:19:18.371Z,69.20
2023-04-22T01:21:49.895Z,60.03
2023-04-22T01:24:19.530Z,68.90
2023-04-22T01:26:50.421Z,65.22
2023-04-22T01:29:20.259Z,67.30
2023-04-22T01:31:50.515Z,53.60
2023-04-22T01:34:20.384Z,49.58
2023-04-22T01:36:50.188Z,46.13
2023-04-22T01:39:20.474Z,45.20
2023-04-22T01:41:50.334Z,41.30
2023-04-22T01:44:21.396Z,43.75
2023-04-22T01:46:50.988Z,46.80
2023-04-22T01:49:20.568Z,42.35
2023-04-22T01:51:50.129Z,39.30
2023-04-22T01:54:19.770Z,46.90
2023-04-22T01:57:00.052Z,42.15
2023-04-22T01:59:29.698Z,39.72
2023-04-22T02:01:59.284Z,40.80
2023-04-22T02:04:28.881Z,40.42
2023-04-22T02:06:58.452Z,38.90
2023-04-22T02:09:28.256Z,50.20
2023-04-22T02:11:57.817Z,41.13
2023-04-22T02:14:28.183Z,39.78
2023-04-22T02:16:57.858Z,39.13
2023-04-22T02:19:27.567Z,36.33
2023-04-22T02:21:57.524Z,38.47
2023-04-22T02:24:27.210Z,36.47
2023-04-22T02:26:56.950Z,36.65
2023-04-22T02:29:26.509Z,38.55
2023-04-22T02:31:56.237Z,41.88
2023-04-22T02:34:25.891Z,37.90
2023-04-22T02:36:55.525Z,35.78
2023-04-22T02:39:25.174Z,36.08
2023-04-22T02:41:54.826Z,32.88
2023-04-22T02:44:24.448Z,37.28
2023-04-22T02:46:56.899Z,38.92
2023-04-22T02:49:26.552Z,36.35
2023-04-22T02:51:56.291Z,36.70
2023-04-22T02:54:25.982Z,40.05
2023-04-22T02:56:55.582Z,45.47
2023-04-22T02:59:25.220Z,36.78
2023-04-22T03:01:54.892Z,39.17
2023-04-22T03:04:24.741Z,45.40
2023-04-22T03:06:54.976Z,43.25
2023-04-22T03:09:24.575Z,49.72
2023-04-22T03:11:54.138Z,56.22
2023-04-22T03:14:23.767Z,54.28
2023-04-22T03:16:53.537Z,51.38
2023-04-22T03:19:23.239Z,48.10
2023-04-22T03:21:52.868Z,48.05
2023-04-22T03:24:22.553Z,49.67
2023-04-22T03:26:52.322Z,50.83
2023-04-22T03:29:21.889Z,49.33
2023-04-22T03:31:51.696Z,54.33
2023-04-22T03:34:21.286Z,56.22
2023-04-22T03:36:50.821Z,49.72
2023-04-22T03:39:20.402Z,58.30
2023-04-22T03:41:50.018Z,53.38
2023-04-22T03:44:19.702Z,48.28
2023-04-22T03:46:49.287Z,59.03
2023-04-22T03:49:19.311Z,51.75
2023-04-22T03:51:48.951Z,48.30
2023-04-22T03:54:18.623Z,55.03
2023-04-22T03:56:48.149Z,53.92
2023-04-22T03:59:18.000Z,53.55
2023-04-22T04:01:53.042Z,47.60
2023-04-22T04:04:25.074Z,52.63
2023-04-22T04:06:55.715Z,53.28
2023-04-22T04:09:26.398Z,47.10
2023-04-22T04:11:56.097Z,52.25
2023-04-22T04:14:25.797Z,50.17
2023-04-22T04:16:55.366Z,45.75
2023-04-22T04:19:24.936Z,52.30
2023-04-22T04:21:54.544Z,46.22
2023-04-22T04:24:24.192Z,51.13
2023-04-22T04:26:53.963Z,52.78
2023-04-22T04:29:25.361Z,51.85
2023-04-22T04:31:55.285Z,57.33
2023-04-22T04:34:24.885Z,47.17
2023-04-22T04:36:54.587Z,42.75
2023-04-22T04:39:24.356Z,57.22
2023-04-22T04:41:56.960Z,55.97
2023-04-22T04:44:29.862Z,54.40
2023-04-22T04:47:00.446Z,53.60
2023-04-22T04:49:32.283Z,54.60
2023-04-22T04:52:03.052Z,45.33
2023-04-22T04:54:32.668Z,49.55
2023-04-22T04:57:03.423Z,51.85
2023-04-22T04:59:33.082Z,46.90
2023-04-22T05:02:02.842Z,47.25
2023-04-22T05:04:32.865Z,52.72
2023-04-22T05:07:02.748Z,51.67
2023-04-22T05:09:38.993Z,53.97
2023-04-22T05:12:08.934Z,52.20
2023-04-22T05:14:38.546Z,48.53
2023-04-22T05:17:08.402Z,47.00
2023-04-22T05:19:38.173Z,47.30
2023-04-22T05:22:09.094Z,48.97
2023-04-22T05:24:39.272Z,48.65
2023-04-22T05:27:10.448Z,48.88
2023-04-22T05:29:40.452Z,45.05
2023-04-22T05:32:10.902Z,47.75
2023-04-22T05:34:40.595Z,49.30
2023-04-22T05:37:12.510Z,52.22
2023-04-22T05:39:42.880Z,47.35
2023-04-22T05:42:12.649Z,45.97
2023-04-22T05:44:42.613Z,58.78
2023-04-22T05:47:12.200Z,45.40
2023-04-22T05:49:42.051Z,48.58
2023-04-22T05:52:12.038Z,42.80
2023-04-22T05:54:41.666Z,51.47
2023-04-22T05:57:11.266Z,51.13
2023-04-22T05:59:41.306Z,48.95
2023-04-22T06:02:11.311Z,44.03
2023-04-22T06:04:41.304Z,51.65
2023-04-22T06:07:11.286Z,48.22
2023-04-22T06:09:41.941Z,49.78
2023-04-22T06:12:12.527Z,47.00
2023-04-22T06:14:42.127Z,45.75
2023-04-22T06:17:11.795Z,42.15
2023-04-22T06:19:41.637Z,45.03
2023-04-22T06:22:11.383Z,45.17
2023-04-22T06:24:41.089Z,42.83
2023-04-22T06:27:10.817Z,44.70
2023-04-22T06:29:40.679Z,48.08
2023-04-22T06:32:10.423Z,44.72
2023-04-22T06:34:40.400Z,47.53
2023-04-22T06:37:10.406Z,46.60
2023-04-22T06:39:40.232Z,39.28
2023-04-22T06:42:10.470Z,40.55
2023-04-22T06:44:40.169Z,40.53
2023-04-22T06:47:09.679Z,43.50
2023-04-22T06:49:41.459Z,42.50
2023-04-22T06:52:11.353Z,42.88
2023-04-22T06:54:42.021Z,41.58
2023-04-22T06:57:11.549Z,42.40
2023-04-22T06:59:41.914Z,40.75
2023-04-22T07:02:12.820Z,41.88
2023-04-22T07:04:42.658Z,36.83
2023-04-22T07:07:12.310Z,41.08
2023-04-22T07:09:42.244Z,38.38
2023-04-22T07:12:12.206Z,35.58
2023-04-22T07:14:46.485Z,42.25
2023-04-22T07:17:16.116Z,39.13
2023-04-22T07:19:45.617Z,46.08
2023-04-22T07:22:15.290Z,42.15
2023-04-22T07:24:44.894Z,44.42
2023-04-22T07:27:14.526Z,38.22
2023-04-22T07:29:44.108Z,42.75
2023-04-22T07:32:13.913Z,40.58
2023-04-22T07:34:43.647Z,42.28
2023-04-22T07:37:13.273Z,42.38
2023-04-22T07:39:43.161Z,39.58
2023-04-22T07:42:13.467Z,47.70
2023-04-22T07:44:43.431Z,36.22
2023-04-22T07:47:13.129Z,40.72
2023-04-22T07:49:42.838Z,35.17
2023-04-22T07:52:12.424Z,38.80
2023-04-22T07:54:42.037Z,39.60
2023-04-22T07:57:11.751Z,39.25
2023-04-22T07:59:41.975Z,47.00
2023-04-22T08:02:11.881Z,41.67
2023-04-22T08:04:41.910Z,43.90
2023-04-22T08:09:44.335Z,40.88
2023-04-22T08:12:14.002Z,38.95
2023-04-22T08:14:43.690Z,37.10
2023-04-22T08:17:13.324Z,38.92
2023-04-22T08:19:44.774Z,37.40
2023-04-22T08:22:15.245Z,44.88
2023-04-22T08:24:45.009Z,38.70
2023-04-22T08:27:14.668Z,43.55
2023-04-22T08:29:44.535Z,34.80
2023-04-22T08:32:14.356Z,37.30
2023-04-22T08:34:44.214Z,32.63
2023-04-22T08:37:14.002Z,39.40
2023-04-22T08:39:43.766Z,36.33
2023-04-22T08:42:14.489Z,35.00
2023-04-22T08:44:44.146Z,32.60
2023-04-22T08:47:15.367Z,36.75
2023-04-22T08:49:45.760Z,36.45
2023-04-22T08:52:17.079Z,35.78
2023-04-22T08:54:46.982Z,37.70
2023-04-22T08:57:18.162Z,41.00
2023-04-22T08:59:48.305Z,43.47
2023-04-22T09:02:23.674Z,41.38
2023-04-22T09:04:57.983Z,37.05
2023-04-22T09:07:30.061Z,42.75
2023-04-22T09:10:00.809Z,41.20
2023-04-22T09:12:30.789Z,33.30
2023-04-22T09:15:00.405Z,31.58
2023-04-22T09:17:39.794Z,36.97
2023-04-22T09:20:11.346Z,36.15
2023-04-22T09:22:44.808Z,36.22
2023-04-22T09:25:28.566Z,32.85
2023-04-22T09:28:01.185Z,37.35
2023-04-22T09:30:36.491Z,32.58
2023-04-22T09:33:08.385Z,34.85
2023-04-22T09:35:40.454Z,36.38
2023-04-22T09:38:13.739Z,45.42
2023-04-22T09:40:47.194Z,39.35
2023-04-22T09:43:22.084Z,35.85
2023-04-22T09:45:51.817Z,28.13
2023-04-22T09:48:22.258Z,35.00
2023-04-22T09:50:53.653Z,33.97
2023-04-22T09:53:24.648Z,40.10
2023-04-22T09:55:56.460Z,36.60
2023-04-22T09:58:27.445Z,37.25
2023-04-22T10:00:58.692Z,37.22
2023-04-22T10:03:28.322Z,42.50
2023-04-22T10:05:57.933Z,45.50
2023-04-22T10:08:27.787Z,46.03
2023-04-22T10:10:58.753Z,38.33
2023-04-22T10:13:28.414Z,29.60
2023-04-22T10:15:59.817Z,41.50
2023-04-22T10:18:30.737Z,36.30
2023-04-22T10:21:01.814Z,40.28
2023-04-22T10:23:35.867Z,41.25
2023-04-22T10:26:08.004Z,37.08
2023-04-22T10:28:48.045Z,38.78
2023-04-22T10:31:25.304Z,29.77
2023-04-22T10:34:12.950Z,31.60
2023-04-22T10:37:09.637Z,40.50
2023-04-22T10:39:40.526Z,37.75
2023-04-22T10:42:14.092Z,35.55
2023-04-22T10:44:56.150Z,37.47
2023-04-22T10:47:37.788Z,53.55
2023-04-22T10:50:16.006Z,65.88
2023-04-22T10:52:48.990Z,59.10
2023-04-22T10:55:18.707Z,35.55
2023-04-22T10:57:50.950Z,32.85
2023-04-22T11:00:31.017Z,30.95
2023-04-22T11:03:12.599Z,30.33
2023-04-22T11:05:42.943Z,33.53
2023-04-22T11:08:25.148Z,66.03
2023-04-22T11:10:56.941Z,42.40
2023-04-22T11:13:26.484Z,53.35
2023-04-22T11:15:58.002Z,42.58
2023-04-22T11:18:29.293Z,30.88
2023-04-22T11:20:59.311Z,26.98
2023-04-22T11:23:30.384Z,45.60
2023-04-22T11:26:01.914Z,37.90
2023-04-22T11:28:32.426Z,32.85
2023-04-22T11:31:11.993Z,28.27
2023-04-22T11:33:41.692Z,31.38
2023-04-22T11:36:15.454Z,23.52
2023-04-22T11:38:45.605Z,28.52
2023-04-22T11:41:15.239Z,36.15
2023-04-22T11:43:51.033Z,34.35
2023-04-22T11:46:32.035Z,31.13
2023-04-22T11:49:21.548Z,31.70
2023-04-22T11:51:58.564Z,37.33
2023-04-22T11:54:37.612Z,31.08
2023-04-22T11:57:10.436Z,24.95
2023-04-22T11:59:40.324Z,26.70
2023-04-22T12:02:11.228Z,25.17
2023-04-22T12:04:43.074Z,33.20
2023-04-22T12:07:13.387Z,46.03
2023-04-22T12:09:42.993Z,31.95
2023-04-22T12:12:13.224Z,30.08
2023-04-22T12:14:47.182Z,28.88
2023-04-22T12:17:17.982Z,26.60
2023-04-22T12:19:50.219Z,29.90
2023-04-22T12:22:30.188Z,32.03
2023-04-22T12:25:04.798Z,33.83
2023-04-22T12:27:34.474Z,33.05
2023-04-22T12:30:05.164Z,39.38
2023-04-22T12:32:34.838Z,34.92
2023-04-22T12:35:04.377Z,34.83
2023-04-22T12:37:34.462Z,35.50
2023-04-22T12:40:04.463Z,32.92
2023-04-22T12:42:34.539Z,34.08
2023-04-22T12:45:04.881Z,39.35
2023-04-22T12:47:34.941Z,36.47
2023-04-22T12:50:08.072Z,36.78
2023-04-22T12:52:38.033Z,36.40
2023-04-22T12:55:08.071Z,37.95
2023-04-22T12:57:37.947Z,30.75
2023-04-22T13:00:15.770Z,35.20
2023-04-22T13:05:15.977Z,30.92
2023-04-22T13:07:48.646Z,40.53
2023-04-22T13:10:26.066Z,36.00
2023-04-22T13:13:00.564Z,39.58
2023-04-22T13:15:40.444Z,33.20
2023-04-22T13:18:10.051Z,35.10
2023-04-22T13:20:39.833Z,31.73
2023-04-22T13:23:09.809Z,31.88
2023-04-22T13:25:39.781Z,35.75
2023-04-22T13:28:09.581Z,59.28
2023-04-22T13:30:39.185Z,54.08
2023-04-22T13:33:09.080Z,50.15
2023-04-22T13:35:39.088Z,56.30
2023-04-22T13:38:09.214Z,50.15
2023-04-22T13:40:39.038Z,57.17
2023-04-22T13:43:09.965Z,52.83
2023-04-22T13:45:39.712Z,49.55
2023-04-22T13:48:09.357Z,47.60
2023-04-22T13:50:38.999Z,47.75
2023-04-22T13:53:11.677Z,62.78
2023-04-22T13:55:41.815Z,46.50
2023-04-22T13:58:11.513Z,43.67
2023-04-22T14:00:41.205Z,46.85
2023-04-22T14:03:11.100Z,50.53
2023-04-22T14:05:40.846Z,45.78
2023-04-22T14:08:10.477Z,44.90
2023-04-22T14:10:40.154Z,43.88
2023-04-22T14:13:10.237Z,33.47
2023-04-22T14:15:41.644Z,34.63
2023-04-22T14:18:11.293Z,35.47
2023-04-22T14:20:41.116Z,31.30
2023-04-22T14:23:10.658Z,34.30
2023-04-22T14:25:40.494Z,37.95
2023-04-22T14:28:10.031Z,34.95
2023-04-22T14:30:39.779Z,43.88
2023-04-22T14:33:10.506Z,37.92
2023-04-22T14:35:40.633Z,41.47
2023-04-22T14:38:12.688Z,39.38
2023-04-22T14:40:42.692Z,40.92
2023-04-22T14:43:12.357Z,38.58
2023-04-22T14:45:42.179Z,35.25
2023-04-22T14:48:11.942Z,37.28
2023-04-22T14:50:41.785Z,34.72
2023-04-22T14:53:11.393Z,43.17
2023-04-22T14:55:40.895Z,40.90
2023-04-22T14:58:10.504Z,38.10
2023-04-22T15:00:40.105Z,34.58
2023-04-22T15:03:09.829Z,36.00
2023-04-22T15:05:39.459Z,34.72
2023-04-22T15:08:09.055Z,31.05
2023-04-22T15:10:38.639Z,36.28
2023-04-22T15:13:08.252Z,34.17
2023-04-22T15:15:38.237Z,34.58
2023-04-22T15:18:08.773Z,35.97
2023-04-22T15:20:38.324Z,34.17
2023-04-22T15:23:08.140Z,32.30
2023-04-22T15:25:37.857Z,35.90
2023-04-22T15:28:07.492Z,34.05
2023-04-22T15:30:37.117Z,33.17
2023-04-22T15:33:06.911Z,34.50
2023-04-22T15:35:36.444Z,31.17
2023-04-22T15:38:07.838Z,30.70
2023-04-22T15:40:40.109Z,35.53
2023-04-22T15:43:09.814Z,33.88
2023-04-22T15:45:39.961Z,31.02
2023-04-22T15:48:10.363Z,33.10
2023-04-22T15:50:40.798Z,31.40
2023-04-22T15:53:14.280Z,32.13
2023-04-22T16:07:22.416Z,34.63
2023-04-22T16:09:52.500Z,31.45
2023-04-22T16:12:22.997Z,32.78
2023-04-22T16:14:53.160Z,32.13
2023-04-22T16:17:23.179Z,37.22
2023-04-22T16:19:53.303Z,31.25
2023-04-22T16:22:23.104Z,36.65
2023-04-22T16:24:53.012Z,36.53
2023-04-22T16:27:22.801Z,31.83
2023-04-22T16:29:52.542Z,34.35
2023-04-22T16:32:22.715Z,34.80
2023-04-22T16:34:52.493Z,30.25
2023-04-22T16:37:22.290Z,30.20
2023-04-22T16:39:52.956Z,32.80
2023-04-22T16:42:23.070Z,32.53
2023-04-22T16:44:53.220Z,38.47
2023-04-22T16:47:23.059Z,35.83
2023-04-22T16:49:52.816Z,33.53
2023-04-22T16:52:22.546Z,34.03
2023-04-22T16:54:53.243Z,36.28
2023-04-22T16:57:23.261Z,32.22
2023-04-22T16:59:53.076Z,34.38
2023-04-22T17:02:22.971Z,41.42
2023-04-22T17:04:53.570Z,37.88
2023-04-22T17:07:23.553Z,37.45
2023-04-22T17:09:53.548Z,43.28
2023-04-22T17:12:23.276Z,36.40
2023-04-22T17:14:53.352Z,41.33
2023-04-22T17:17:23.100Z,42.25
2023-04-22T17:19:52.945Z,36.08
2023-04-22T17:22:22.885Z,38.95
2023-04-22T17:24:52.929Z,46.28
2023-04-22T17:27:22.765Z,42.85
2023-04-22T17:29:52.412Z,44.33
2023-04-22T17:32:22.682Z,49.10
2023-04-22T17:34:52.405Z,51.13
2023-04-22T17:37:22.187Z,43.65
2023-04-22T17:39:52.054Z,41.13
2023-04-22T17:42:23.770Z,43.08
2023-04-22T17:44:57.417Z,42.70
2023-04-22T17:47:27.162Z,43.15
2023-04-22T17:49:56.952Z,41.58
2023-04-22T17:52:26.884Z,38.08
2023-04-22T17:54:58.229Z,38.55
2023-04-22T17:57:30.129Z,45.58
2023-04-22T18:00:00.017Z,60.03
2023-04-22T18:02:29.940Z,44.97
2023-04-22T18:04:59.852Z,41.13
2023-04-22T18:07:29.958Z,39.83
2023-04-22T18:09:59.650Z,39.17
2023-04-22T18:12:31.101Z,42.60
2023-04-22T18:15:01.528Z,40.97
2023-04-22T18:17:31.395Z,48.25
2023-04-22T18:22:34.151Z,40.33
2023-04-22T18:25:03.987Z,37.75
2023-04-22T18:27:33.777Z,43.08
2023-04-22T18:30:03.589Z,39.95
2023-04-22T18:32:33.351Z,41.58
2023-04-22T18:35:03.323Z,49.65
2023-04-22T18:37:34.538Z,46.83
2023-04-22T18:40:07.319Z,48.00
2023-04-22T18:42:37.651Z,44.33
2023-04-22T18:45:09.038Z,37.95
2023-04-22T18:47:39.003Z,38.78
2023-04-22T18:50:09.325Z,42.22
2023-04-22T18:52:39.640Z,48.08
2023-04-22T18:55:09.780Z,45.35
2023-04-22T18:57:39.741Z,39.33
2023-04-22T19:00:10.102Z,36.50
2023-04-22T19:02:42.164Z,38.17
2023-04-22T19:05:12.903Z,43.00
2023-04-22T19:07:45.247Z,46.65
2023-04-22T19:10:15.238Z,47.05
2023-04-22T19:12:45.242Z,41.38
2023-04-22T19:15:15.819Z,42.78
2023-04-22T19:17:45.472Z,44.80
2023-04-22T19:20:15.387Z,37.15
2023-04-22T19:22:46.291Z,43.03
2023-04-22T19:25:15.890Z,38.58
2023-04-22T19:27:45.630Z,42.10
2023-04-22T19:30:16.545Z,36.70
2023-04-22T19:32:46.292Z,39.65
2023-04-22T19:35:18.111Z,40.55
2023-04-22T19:37:48.516Z,38.78
2023-04-22T19:40:18.840Z,42.35
2023-04-22T19:42:48.648Z,40.13
2023-04-22T19:45:18.618Z,40.97
2023-04-22T19:47:48.794Z,40.95
2023-04-22T19:50:18.852Z,39.55
2023-04-22T19:52:51.958Z,37.38
2023-04-22T19:55:22.600Z,46.25
2023-04-22T19:57:52.500Z,35.38
2023-04-22T20:00:23.177Z,38.55
2023-04-22T20:02:53.207Z,40.15
2023-04-22T20:05:23.881Z,47.00
2023-04-22T20:07:54.760Z,42.83
2023-04-22T20:10:24.787Z,37.97
2023-04-22T20:12:55.418Z,36.85
2023-04-22T20:15:25.989Z,44.10
2023-04-22T20:17:56.799Z,34.60
2023-04-22T20:20:26.848Z,43.28
2023-04-22T20:22:59.436Z,35.92
2023-04-22T20:25:30.392Z,40.08
2023-04-22T20:28:00.447Z,46.67
2023-04-22T20:30:30.454Z,60.97
2023-04-22T20:33:00.278Z,65.43
2023-04-22T20:35:30.390Z,70.07
2023-04-22T20:38:04.250Z,62.90
2023-04-22T20:40:36.389Z,53.40
2023-04-22T20:43:06.243Z,64.93
2023-04-22T20:45:35.796Z,52.80
2023-04-22T20:48:05.636Z,54.13
2023-04-22T20:50:35.524Z,53.22
2023-04-22T20:53:06.107Z,51.60
2023-04-22T20:55:37.231Z,61.63
2023-04-22T20:58:07.285Z,62.00
2023-04-22T21:00:37.071Z,57.85
2023-04-22T21:03:10.505Z,62.55
2023-04-22T21:05:45.909Z,51.70
2023-04-22T21:08:27.561Z,56.65
2023-04-22T21:10:58.601Z,59.95
2023-04-22T21:13:29.123Z,48.70
2023-04-22T21:16:04.829Z,50.92
2023-04-22T21:18:35.660Z,50.40
2023-04-22T21:21:06.102Z,49.05
2023-04-22T21:23:36.213Z,49.22
2023-04-22T21:26:07.119Z,54.67
2023-04-22T21:28:37.320Z,56.28
2023-04-22T21:31:12.913Z,48.70
2023-04-22T21:33:43.898Z,63.80
2023-04-22T21:36:13.728Z,63.00
2023-04-22T21:38:43.828Z,63.60
2023-04-22T21:41:13.627Z,63.78
2023-04-22T21:43:43.916Z,52.03
2023-04-22T21:46:13.745Z,52.78
2023-04-22T21:48:43.933Z,53.60
2023-04-22T21:51:13.771Z,54.35
2023-04-22T21:53:44.106Z,49.90
2023-04-22T21:56:14.027Z,56.85
2023-04-22T21:58:43.714Z,45.33
2023-04-22T22:01:14.347Z,48.17
2023-04-22T22:03:44.370Z,49.80
2023-04-22T22:06:14.515Z,41.83
2023-04-22T22:08:44.267Z,50.97
2023-04-22T22:11:27.513Z,44.92
2023-04-22T22:14:00.911Z,45.95
2023-04-22T22:16:31.352Z,48.50
2023-04-22T22:19:04.144Z,47.15
2023-04-22T22:21:34.620Z,62.42
2023-04-22T22:24:04.378Z,273.73
2023-04-22T22:26:34.456Z,153.15
2023-04-22T22:29:04.903Z,145.48
2023-04-22T22:31:34.927Z,80.20
2023-04-22T22:34:04.620Z,49.03
2023-04-22T22:36:34.552Z,53.78
2023-04-22T22:39:05.406Z,57.50
2023-04-22T22:41:35.181Z,56.65
2023-04-22T22:44:05.215Z,51.35
2023-04-22T22:46:35.231Z,48.13
2023-04-22T22:49:05.496Z,46.85
2023-04-22T22:51:35.470Z,52.55
2023-04-22T22:54:06.736Z,55.33
2023-04-22T22:56:36.636Z,60.35
2023-04-22T22:59:06.376Z,58.05
2023-04-22T23:01:36.204Z,68.93
2023-04-22T23:04:07.795Z,67.32
2023-04-22T23:06:37.942Z,63.78
2023-04-22T23:09:07.702Z,66.13
2023-04-22T23:11:37.393Z,68.10
2023-04-22T23:14:07.613Z,65.47
2023-04-22T23:16:37.734Z,73.32
2023-04-22T23:19:08.292Z,64.30
2023-04-22T23:21:39.509Z,59.55
2023-04-22T23:24:11.180Z,59.80
2023-04-22T23:26:41.231Z,59.60
2023-04-22T23:29:12.777Z,59.40
2023-04-22T23:31:43.760Z,56.88
2023-04-22T23:34:14.740Z,59.70
2023-04-22T23:36:44.899Z,56.70
2023-04-22T23:39:15.093Z,51.83
2023-04-22T23:41:45.016Z,48.40
2023-04-22T23:44:14.995Z,59.65
2023-04-22T23:46:45.093Z,54.33
2023-04-22T23:49:15.079Z,52.72
2023-04-22T23:51:45.449Z,56.75
2023-04-22T23:54:15.376Z,54.83
2023-04-22T23:56:45.898Z,55.63
2023-04-22T23:59:15.899Z,57.22
